Time;durP1;ratioP1;P1;durP2;ratioP2;P2;SDS_P1;SDS_P2;PMS_P1;PMS_P2;Temp;Humidity;BMP_temperature;BMP_pressure;BME280_temperature;BME280_humidity;BME280_pressure;Samples;Min_cycle;Max_cycle;Signal;HPM_P1;HPM_P2
2023/09/27 00:01:59;;;;;;;11.07;6.85;;;13.70;99.90;;;;;;4999697;28;20168;-61
2023/09/27 00:04:24;;;;;;;8.70;6.38;;;13.70;99.90;;;;;;4999938;28;20594;-61
2023/09/27 00:06:50;;;;;;;12.23;6.93;;;13.70;99.90;;;;;;5000274;28;20645;-61
2023/09/27 00:09:16;;;;;;;11.25;6.57;;;13.60;99.90;;;;;;4999929;28;20543;-61
2023/09/27 00:11:41;;;;;;;9.40;7.03;;;13.60;99.90;;;;;;4998159;28;20185;-61
2023/09/27 00:14:07;;;;;;;12.88;7.53;;;13.50;99.90;;;;;;4996234;28;20200;-61
2023/09/27 00:16:33;;;;;;;10.25;6.68;;;13.50;99.90;;;;;;4996565;28;20179;-61
2023/09/27 00:18:59;;;;;;;10.32;6.88;;;13.50;99.90;;;;;;4996501;28;20227;-61
2023/09/27 00:21:24;;;;;;;8.85;6.50;;;13.60;99.90;;;;;;4996629;28;20215;-61
2023/09/27 00:23:50;;;;;;;8.00;7.13;;;13.60;99.90;;;;;;4996610;28;20177;-61
2023/09/27 00:26:16;;;;;;;9.63;7.18;;;13.60;99.90;;;;;;4995231;28;20203;-61
2023/09/27 00:28:41;;;;;;;9.45;6.60;;;13.50;99.90;;;;;;4995302;28;20565;-60
2023/09/27 00:31:07;;;;;;;11.75;7.63;;;13.50;99.90;;;;;;4996406;28;20268;-61
2023/09/27 00:33:33;;;;;;;10.45;7.43;;;13.60;99.90;;;;;;4996182;28;20173;-61
2023/09/27 00:35:59;;;;;;;8.25;6.80;;;13.50;99.90;;;;;;4996427;28;20235;-61
2023/09/27 00:38:24;;;;;;;9.40;7.68;;;13.50;99.90;;;;;;4996475;28;20180;-61
2023/09/27 00:40:51;;;;;;;10.00;7.10;;;13.30;99.90;;;;;;4996791;28;20169;-61
2023/09/27 00:43:26;;;;;;;9.18;7.05;;;13.40;99.90;;;;;;4996587;28;20635;-61
2023/09/27 00:46:03;;;;;;;9.65;7.28;;;13.40;99.90;;;;;;4996174;28;20180;-61
2023/09/27 00:48:30;;;;;;;10.65;6.95;;;13.30;99.90;;;;;;4995959;28;20164;-61
2023/09/27 00:50:57;;;;;;;8.68;6.53;;;13.40;99.90;;;;;;4996095;28;20185;-60
2023/09/27 00:53:25;;;;;;;11.00;7.20;;;13.20;99.90;;;;;;4996317;28;20176;-61
2023/09/27 00:55:51;;;;;;;10.65;6.65;;;13.20;99.90;;;;;;4995876;28;20165;-61
2023/09/27 00:58:19;;;;;;;8.18;6.60;;;13.10;99.90;;;;;;4996151;28;20177;-61
2023/09/27 01:00:48;;;;;;;9.68;7.13;;;13.10;99.90;;;;;;4978395;28;20187;-60
2023/09/27 01:03:14;;;;;;;10.23;6.93;;;13.20;99.90;;;;;;4977962;28;20199;-61
2023/09/27 01:05:44;;;;;;;7.82;6.25;;;13.10;99.90;;;;;;4978438;28;20637;-61
2023/09/27 01:08:10;;;;;;;10.82;6.93;;;13.00;99.90;;;;;;4978641;28;20296;-60
2023/09/27 01:10:37;;;;;;;7.50;6.68;;;13.10;99.90;;;;;;4995683;28;20205;-61
2023/09/27 01:13:04;;;;;;;12.05;7.20;;;13.10;99.90;;;;;;4996073;28;20532;-61
2023/09/27 01:15:30;;;;;;;10.93;6.75;;;12.90;99.90;;;;;;4995692;28;20192;-61
2023/09/27 01:18:00;;;;;;;8.00;6.30;;;12.80;99.90;;;;;;4995399;28;20172;-60
2023/09/27 01:20:27;;;;;;;10.57;6.63;;;12.70;99.90;;;;;;4995614;28;20220;-61
2023/09/27 01:23:06;;;;;;;8.02;6.07;;;12.70;99.90;;;;;;4995418;28;20181;-61
2023/09/27 01:25:36;;;;;;;10.70;6.75;;;12.80;99.90;;;;;;4995547;28;20574;-61
2023/09/27 01:28:05;;;;;;;8.80;6.00;;;12.80;99.90;;;;;;4994246;28;20195;-61
2023/09/27 01:30:34;;;;;;;10.30;6.72;;;12.70;99.90;;;;;;4995616;28;20208;-61
2023/09/27 01:33:00;;;;;;;8.73;6.90;;;12.80;99.90;;;;;;4995220;28;20546;-61
2023/09/27 01:35:26;;;;;;;10.45;7.47;;;12.80;99.90;;;;;;4993867;28;20232;-61
2023/09/27 01:37:53;;;;;;;8.90;7.47;;;12.90;99.90;;;;;;4995363;28;20243;-61
2023/09/27 01:40:22;;;;;;;9.57;7.35;;;12.90;99.90;;;;;;4993830;28;20197;-61
2023/09/27 01:42:48;;;;;;;10.13;7.07;;;12.70;99.90;;;;;;4995235;28;20642;-60
2023/09/27 01:45:13;;;;;;;8.30;7.13;;;12.60;99.90;;;;;;4995266;28;20175;-61
2023/09/27 01:47:40;;;;;;;8.95;6.43;;;12.50;99.90;;;;;;4994752;28;20700;-61
2023/09/27 01:50:09;;;;;;;12.43;6.63;;;12.40;99.90;;;;;;4993722;28;20219;-60
2023/09/27 01:52:35;;;;;;;8.77;6.75;;;12.40;99.90;;;;;;4994957;28;20176;-61
2023/09/27 01:55:02;;;;;;;8.18;6.88;;;12.30;99.90;;;;;;4994900;28;20541;-61
2023/09/27 01:57:28;;;;;;;10.10;7.28;;;12.20;99.90;;;;;;4995013;28;20255;-62
2023/09/27 01:59:54;;;;;;;7.78;6.13;;;12.20;99.90;;;;;;4994911;28;20283;-61
2023/09/27 02:02:19;;;;;;;7.82;6.43;;;12.20;99.90;;;;;;4994657;28;20672;-61
2023/09/27 02:04:45;;;;;;;8.80;6.50;;;12.20;99.90;;;;;;4995285;28;20290;-61
2023/09/27 02:07:11;;;;;;;13.73;6.15;;;12.10;99.90;;;;;;4994704;28;20183;-61
2023/09/27 02:09:37;;;;;;;8.43;6.53;;;12.10;99.90;;;;;;4994802;28;20278;-61
2023/09/27 02:12:02;;;;;;;9.13;6.70;;;12.10;99.90;;;;;;4994564;28;20303;-61
2023/09/27 02:14:28;;;;;;;6.22;5.47;;;12.10;99.90;;;;;;4995033;28;20253;-61
2023/09/27 02:16:55;;;;;;;10.43;6.78;;;12.10;99.90;;;;;;4994458;28;20200;-61
2023/09/27 02:19:21;;;;;;;8.65;6.30;;;12.30;99.90;;;;;;4994412;28;20247;-61
2023/09/27 02:21:47;;;;;;;7.95;5.80;;;12.30;99.90;;;;;;4994434;28;20184;-61
2023/09/27 02:24:12;;;;;;;13.93;6.93;;;12.20;99.90;;;;;;4994213;28;20187;-62
2023/09/27 02:26:38;;;;;;;8.07;5.80;;;12.10;99.90;;;;;;4977063;28;20193;-61
2023/09/27 02:29:05;;;;;;;10.63;6.55;;;12.10;99.90;;;;;;4993057;28;20205;-61
2023/09/27 02:31:31;;;;;;;8.10;6.35;;;12.20;99.90;;;;;;4994562;28;20676;-61
2023/09/27 02:33:57;;;;;;;10.63;6.30;;;12.20;99.90;;;;;;4992863;28;20204;-61
2023/09/27 02:36:23;;;;;;;8.95;7.20;;;12.20;99.90;;;;;;4994001;28;20227;-61
2023/09/27 02:38:48;;;;;;;9.55;6.80;;;12.20;99.90;;;;;;4992852;28;20287;-61
2023/09/27 02:41:14;;;;;;;8.38;6.70;;;12.10;99.90;;;;;;4994128;28;20173;-61
2023/09/27 02:43:40;;;;;;;9.75;7.28;;;12.00;99.90;;;;;;4994109;28;20184;-61
2023/09/27 02:46:07;;;;;;;9.05;6.95;;;12.10;99.90;;;;;;4994522;28;20570;-61
2023/09/27 02:48:33;;;;;;;9.20;6.60;;;12.10;99.90;;;;;;4993836;28;20203;-61
2023/09/27 02:50:59;;;;;;;7.95;6.22;;;12.10;99.90;;;;;;4992736;28;20193;-61
2023/09/27 02:53:25;;;;;;;8.00;6.57;;;12.10;99.90;;;;;;4994214;28;20180;-61
2023/09/27 02:55:51;;;;;;;8.70;7.20;;;12.10;99.90;;;;;;4994140;28;20212;-63
2023/09/27 02:58:18;;;;;;;11.13;6.95;;;12.10;99.90;;;;;;4994226;28;20176;-62
2023/09/27 03:00:44;;;;;;;11.52;7.10;;;12.10;99.90;;;;;;4992767;28;20212;-63
2023/09/27 03:03:10;;;;;;;10.88;6.80;;;12.00;99.90;;;;;;4994058;28;20196;-63
2023/09/27 03:05:36;;;;;;;10.65;7.43;;;11.90;99.90;;;;;;4994137;28;20311;-63
2023/09/27 03:08:03;;;;;;;12.55;7.20;;;11.90;99.90;;;;;;4994379;28;20591;-63
2023/09/27 03:10:29;;;;;;;9.77;7.60;;;11.90;99.90;;;;;;4993854;28;20202;-63
2023/09/27 03:12:55;;;;;;;8.95;7.00;;;11.80;99.90;;;;;;4994058;28;20181;-63
2023/09/27 03:15:21;;;;;;;8.90;6.60;;;11.80;99.90;;;;;;4993910;28;20197;-63
2023/09/27 03:17:48;;;;;;;9.30;6.88;;;11.70;99.90;;;;;;4992381;28;20271;-62
2023/09/27 03:20:18;;;;;;;7.57;6.28;;;11.70;99.90;;;;;;4993688;28;20200;-62
2023/09/27 03:22:47;;;;;;;7.55;6.10;;;11.70;99.90;;;;;;4994281;28;20185;-62
2023/09/27 03:25:14;;;;;;;9.93;7.32;;;11.70;99.90;;;;;;4993673;28;20192;-63
2023/09/27 03:27:40;;;;;;;9.10;7.07;;;11.70;99.90;;;;;;4993768;28;20686;-63
2023/09/27 03:30:08;;;;;;;10.10;7.43;;;11.70;99.90;;;;;;4993974;28;20204;-63
2023/09/27 03:32:37;;;;;;;10.02;6.80;;;11.70;99.90;;;;;;4993388;28;20180;-63
2023/09/27 03:35:03;;;;;;;8.55;7.13;;;11.70;99.90;;;;;;4993595;28;20284;-63
2023/09/27 03:37:32;;;;;;;14.50;8.25;;;11.70;99.90;;;;;;4993517;28;20169;-63
2023/09/27 03:39:59;;;;;;;8.80;6.88;;;11.70;99.90;;;;;;4991980;28;20700;-63
2023/09/27 03:42:24;;;;;;;10.82;7.60;;;11.70;99.90;;;;;;4993775;28;20172;-63
2023/09/27 03:44:51;;;;;;;8.35;7.22;;;11.60;99.90;;;;;;4993583;28;20195;-62
2023/09/27 03:47:16;;;;;;;10.85;7.43;;;11.60;99.90;;;;;;4995326;28;20537;-64
2023/09/27 03:49:42;;;;;;;9.55;7.15;;;11.60;99.90;;;;;;4997239;28;20287;-63
2023/09/27 03:52:09;;;;;;;10.05;7.55;;;11.60;99.90;;;;;;4997227;28;20187;-63
2023/09/27 03:54:35;;;;;;;9.73;7.45;;;11.60;99.90;;;;;;4997186;28;20203;-63
2023/09/27 03:57:01;;;;;;;9.43;7.57;;;11.60;99.90;;;;;;4997186;28;20184;-62
2023/09/27 03:59:26;;;;;;;10.48;7.50;;;11.50;99.90;;;;;;4997208;28;20228;-63
2023/09/27 04:01:52;;;;;;;8.90;7.68;;;11.50;99.90;;;;;;4997571;28;20192;-62
2023/09/27 04:04:18;;;;;;;12.43;10.27;;;11.50;99.90;;;;;;4996825;28;20283;-63
2023/09/27 04:06:45;;;;;;;15.32;11.68;;;11.40;99.90;;;;;;4997465;28;20187;-63
2023/09/27 04:09:10;;;;;;;11.63;9.50;;;11.40;99.90;;;;;;4996828;28;20673;-63
2023/09/27 04:11:37;;;;;;;8.32;6.93;;;11.40;99.90;;;;;;4996741;28;20188;-63
2023/09/27 04:14:05;;;;;;;8.88;6.70;;;11.40;99.90;;;;;;4996617;28;20254;-63
2023/09/27 04:16:32;;;;;;;7.28;5.53;;;11.40;99.90;;;;;;4996973;28;20626;-63
2023/09/27 04:18:58;;;;;;;6.03;5.43;;;11.40;99.90;;;;;;4978881;28;20200;-63
2023/09/27 04:21:25;;;;;;;7.38;5.82;;;11.30;99.90;;;;;;4979055;28;20234;-63
2023/09/27 04:23:57;;;;;;;7.50;5.72;;;11.30;99.90;;;;;;4996583;28;20177;-62
2023/09/27 04:26:23;;;;;;;7.43;6.47;;;11.30;99.90;;;;;;4988773;28;20580;-63
2023/09/27 04:28:53;;;;;;;9.07;6.45;;;11.20;99.90;;;;;;4979189;28;20196;-63
2023/09/27 04:31:19;;;;;;;7.15;6.22;;;11.30;99.90;;;;;;4996724;28;20172;-63
2023/09/27 04:33:47;;;;;;;7.75;6.22;;;11.30;99.90;;;;;;4996281;28;20195;-63
2023/09/27 04:36:17;;;;;;;7.00;6.30;;;11.20;99.90;;;;;;4996750;28;20175;-62
2023/09/27 04:38:47;;;;;;;10.15;6.88;;;11.20;99.90;;;;;;4996503;28;20197;-62
2023/09/27 04:41:17;;;;;;;7.55;6.75;;;11.30;99.90;;;;;;4978836;28;20176;-62
2023/09/27 04:43:44;;;;;;;7.35;6.55;;;11.30;99.90;;;;;;4991728;28;20181;-62
2023/09/27 04:46:19;;;;;;;8.32;7.35;;;11.30;99.90;;;;;;4995089;28;20204;-62
2023/09/27 04:48:45;;;;;;;10.48;7.22;;;11.20;99.90;;;;;;4995962;28;20557;-62
2023/09/27 04:51:11;;;;;;;11.65;7.65;;;11.10;99.90;;;;;;4995972;28;20271;-62
2023/09/27 04:53:37;;;;;;;10.27;7.43;;;11.10;99.90;;;;;;4996126;28;20255;-62
2023/09/27 04:56:07;;;;;;;10.65;8.02;;;11.10;99.90;;;;;;4994780;28;20181;-62
2023/09/27 04:58:33;;;;;;;15.48;8.70;;;11.00;99.90;;;;;;4995364;28;20727;-62
2023/09/27 05:01:00;;;;;;;12.45;7.93;;;11.00;99.90;;;;;;4996065;28;20184;-62
2023/09/27 05:03:27;;;;;;;8.73;6.75;;;11.00;99.90;;;;;;4995321;28;20195;-62
2023/09/27 05:05:52;;;;;;;10.10;6.97;;;10.90;99.90;;;;;;4995099;28;20577;-62
2023/09/27 05:08:18;;;;;;;8.32;6.75;;;10.90;99.90;;;;;;4995995;28;20200;-62
2023/09/27 05:10:44;;;;;;;8.50;6.82;;;10.90;99.90;;;;;;4978614;28;20177;-62
2023/09/27 05:13:10;;;;;;;7.18;6.47;;;10.80;99.90;;;;;;4995821;28;20184;-62
2023/09/27 05:15:36;;;;;;;7.22;5.95;;;10.80;99.90;;;;;;4995778;28;20200;-62
2023/09/27 05:18:02;;;;;;;6.65;5.22;;;10.80;99.90;;;;;;4995578;28;20176;-62
2023/09/27 05:20:28;;;;;;;7.75;6.70;;;10.70;99.90;;;;;;4995581;28;20331;-62
2023/09/27 05:22:53;;;;;;;6.60;5.80;;;10.70;99.90;;;;;;4995452;28;20372;-62
2023/09/27 05:25:19;;;;;;;8.07;6.40;;;10.70;99.90;;;;;;4995494;28;20664;-62
2023/09/27 05:27:45;;;;;;;7.97;6.13;;;10.70;99.90;;;;;;4995757;28;20187;-63
2023/09/27 05:30:11;;;;;;;8.00;6.47;;;10.70;99.90;;;;;;4995864;28;20600;-62
2023/09/27 05:32:37;;;;;;;8.63;6.20;;;10.70;99.90;;;;;;4995083;28;20185;-62
2023/09/27 05:35:04;;;;;;;7.30;5.93;;;10.70;99.90;;;;;;4995280;28;20196;-62
2023/09/27 05:37:31;;;;;;;7.22;5.55;;;10.60;99.90;;;;;;4995157;28;20179;-62
2023/09/27 05:39:57;;;;;;;6.78;6.15;;;10.80;99.90;;;;;;4995225;28;20200;-62
2023/09/27 05:42:23;;;;;;;8.00;5.85;;;11.00;99.90;;;;;;4985978;28;20226;-62
2023/09/27 05:44:48;;;;;;;6.53;5.82;;;11.00;99.90;;;;;;4995155;28;20203;-62
2023/09/27 05:47:15;;;;;;;7.28;6.00;;;11.00;99.90;;;;;;4977657;28;20191;-62
2023/09/27 05:49:42;;;;;;;8.02;6.30;;;10.90;99.90;;;;;;4994784;28;20199;-63
2023/09/27 05:52:12;;;;;;;9.38;7.32;;;10.90;99.90;;;;;;4994960;28;20200;-62
2023/09/27 05:54:39;;;;;;;8.35;6.95;;;10.90;99.90;;;;;;4995133;28;20191;-63
2023/09/27 05:57:06;;;;;;;9.73;7.07;;;11.00;99.90;;;;;;4994813;28;20168;-63
2023/09/27 05:59:36;;;;;;;7.53;6.68;;;10.90;99.90;;;;;;4995058;28;20185;-62
2023/09/27 06:02:02;;;;;;;9.02;6.15;;;11.00;99.90;;;;;;4994750;28;20169;-63
2023/09/27 06:04:27;;;;;;;8.93;6.90;;;11.00;99.90;;;;;;4994492;28;20173;-63
2023/09/27 06:06:53;;;;;;;8.07;6.70;;;11.00;99.90;;;;;;4994618;28;20179;-62
2023/09/27 06:09:19;;;;;;;7.43;6.63;;;11.10;99.90;;;;;;4994370;28;20199;-63
2023/09/27 06:11:46;;;;;;;9.05;6.07;;;11.10;99.90;;;;;;4993981;28;20176;-63
2023/09/27 06:14:12;;;;;;;6.85;6.05;;;11.10;99.90;;;;;;4994815;28;20192;-63
2023/09/27 06:16:39;;;;;;;8.35;6.05;;;11.10;99.90;;;;;;4994848;28;20535;-63
2023/09/27 06:19:05;;;;;;;7.35;5.95;;;11.10;99.90;;;;;;4976748;28;20196;-62
2023/09/27 06:21:32;;;;;;;7.10;6.38;;;11.20;99.90;;;;;;4994394;28;20181;-62
2023/09/27 06:23:59;;;;;;;7.25;6.47;;;11.20;99.90;;;;;;4994656;28;20173;-62
2023/09/27 06:26:24;;;;;;;8.07;7.13;;;11.30;99.90;;;;;;4994380;28;20184;-62
2023/09/27 06:28:50;;;;;;;7.90;6.88;;;11.40;99.90;;;;;;4994898;28;20284;-62
2023/09/27 06:31:16;;;;;;;8.30;6.22;;;11.40;99.90;;;;;;4976961;28;20196;-62
2023/09/27 06:33:45;;;;;;;9.52;6.65;;;11.50;99.90;;;;;;4994246;28;20230;-62
2023/09/27 06:36:11;;;;;;;12.02;7.70;;;11.60;99.90;;;;;;4994215;28;20226;-62
2023/09/27 06:38:37;;;;;;;12.98;8.52;;;11.80;99.90;;;;;;4994460;28;20184;-62
2023/09/27 06:41:03;;;;;;;14.52;9.60;;;12.00;99.90;;;;;;4994345;28;20542;-62
2023/09/27 06:43:31;;;;;;;13.85;9.00;;;12.20;99.90;;;;;;4994227;28;20183;-62
2023/09/27 06:45:58;;;;;;;15.35;9.40;;;12.40;99.90;;;;;;4994115;28;20659;-62
2023/09/27 06:48:25;;;;;;;12.40;9.40;;;12.50;99.90;;;;;;4993956;28;20187;-62
2023/09/27 06:50:51;;;;;;;13.60;8.35;;;12.70;99.90;;;;;;4994329;28;20164;-62
2023/09/27 06:53:17;;;;;;;9.88;7.78;;;12.90;99.90;;;;;;4994062;28;20537;-62
2023/09/27 06:55:47;;;;;;;11.13;7.85;;;13.00;99.90;;;;;;4994264;28;20624;-62
2023/09/27 06:58:14;;;;;;;9.95;7.55;;;13.10;99.90;;;;;;4994005;28;20211;-62
2023/09/27 07:00:43;;;;;;;10.25;7.88;;;13.20;99.90;;;;;;4994093;28;20276;-62
2023/09/27 07:03:09;;;;;;;7.75;6.95;;;13.30;99.90;;;;;;4993954;28;20251;-62
2023/09/27 07:05:35;;;;;;;9.98;7.57;;;13.40;99.90;;;;;;4993932;28;20188;-63
2023/09/27 07:08:01;;;;;;;10.15;8.57;;;13.50;99.90;;;;;;4994245;28;20173;-62
2023/09/27 07:10:26;;;;;;;13.27;8.60;;;13.50;99.90;;;;;;4993727;28;20278;-62
2023/09/27 07:12:52;;;;;;;9.73;8.25;;;13.50;99.90;;;;;;4992670;28;20199;-62
2023/09/27 07:15:19;;;;;;;11.23;9.13;;;13.60;99.90;;;;;;4994242;28;20660;-62
2023/09/27 07:17:44;;;;;;;12.07;9.70;;;13.80;99.90;;;;;;4994098;28;20251;-63
2023/09/27 07:20:24;;;;;;;13.55;10.70;;;14.00;99.90;;;;;;4993877;28;20224;-63
2023/09/27 07:23:03;;;;;;;11.52;9.30;;;14.10;99.90;;;;;;4980032;28;20184;-63
2023/09/27 07:25:32;;;;;;;11.73;10.52;;;14.30;99.90;;;;;;4998053;28;20716;-63
2023/09/27 07:28:03;;;;;;;12.43;10.57;;;14.40;99.90;;;;;;4998018;28;20180;-63
2023/09/27 07:30:29;;;;;;;11.98;10.77;;;14.50;99.90;;;;;;4998183;28;20200;-62
2023/09/27 07:32:55;;;;;;;15.32;10.70;;;14.60;99.90;;;;;;4997993;28;20645;-62
2023/09/27 07:35:21;;;;;;;17.13;11.30;;;14.60;99.90;;;;;;4998492;28;20200;-63
2023/09/27 07:37:47;;;;;;;12.98;10.65;;;14.70;99.90;;;;;;4998867;28;20235;-63
2023/09/27 07:40:14;;;;;;;13.50;9.73;;;14.60;99.90;;;;;;4997988;28;20192;-63
2023/09/27 07:42:44;;;;;;;14.07;10.75;;;14.70;99.90;;;;;;4998174;28;20192;-63
2023/09/27 07:45:15;;;;;;;13.82;9.65;;;14.80;99.90;;;;;;4998338;28;20180;-63
2023/09/27 07:47:42;;;;;;;13.10;10.15;;;14.80;99.90;;;;;;4998489;28;20208;-63
2023/09/27 07:50:10;;;;;;;14.93;10.98;;;14.90;99.90;;;;;;4997649;28;20197;-63
2023/09/27 07:52:37;;;;;;;13.50;10.88;;;14.90;99.90;;;;;;4996484;28;20192;-63
2023/09/27 07:55:04;;;;;;;15.32;11.38;;;14.90;99.90;;;;;;4998059;28;20196;-63
2023/09/27 07:57:31;;;;;;;15.27;11.18;;;15.00;99.90;;;;;;4997724;28;20172;-63
2023/09/27 07:59:56;;;;;;;17.58;11.63;;;15.00;99.90;;;;;;4997611;28;20223;-63
2023/09/27 08:02:22;;;;;;;11.88;10.50;;;15.00;99.90;;;;;;4997441;28;20172;-63
2023/09/27 08:04:49;;;;;;;13.40;10.10;;;15.00;99.90;;;;;;4997251;28;20248;-63
2023/09/27 08:07:15;;;;;;;13.02;10.38;;;15.00;99.90;;;;;;4997370;28;20184;-63
2023/09/27 08:09:42;;;;;;;13.18;10.20;;;14.90;99.90;;;;;;4997351;28;20218;-63
2023/09/27 08:12:08;;;;;;;10.60;8.88;;;14.90;99.90;;;;;;4997293;28;20230;-63
2023/09/27 08:14:38;;;;;;;12.30;9.63;;;14.90;99.90;;;;;;4997119;28;20200;-63
2023/09/27 08:17:04;;;;;;;12.27;8.93;;;15.00;99.90;;;;;;4996987;28;20625;-63
2023/09/27 08:19:32;;;;;;;11.45;9.10;;;15.00;99.90;;;;;;4996871;28;20226;-63
2023/09/27 08:21:58;;;;;;;14.13;10.23;;;15.00;99.90;;;;;;4995455;28;20220;-63
2023/09/27 08:24:24;;;;;;;11.15;8.85;;;15.10;99.90;;;;;;4997010;28;20528;-63
2023/09/27 08:26:50;;;;;;;11.98;7.80;;;15.10;99.90;;;;;;4996876;28;20180;-63
2023/09/27 08:29:18;;;;;;;10.93;9.00;;;15.20;99.90;;;;;;4997109;28;20274;-63
2023/09/27 08:31:44;;;;;;;11.63;9.98;;;15.30;99.90;;;;;;4996964;28;20177;-63
2023/09/27 08:34:10;;;;;;;14.63;9.38;;;15.50;99.90;;;;;;4995609;28;20681;-63
2023/09/27 08:36:36;;;;;;;9.95;8.45;;;15.60;99.90;;;;;;4996681;28;20173;-63
2023/09/27 08:39:02;;;;;;;10.85;9.00;;;15.80;99.90;;;;;;4996340;28;20223;-63
2023/09/27 08:41:29;;;;;;;15.00;10.60;;;15.90;99.90;;;;;;4996393;28;20176;-63
2023/09/27 08:43:57;;;;;;;15.52;8.98;;;16.10;99.90;;;;;;4996642;28;20188;-63
2023/09/27 08:46:24;;;;;;;14.95;10.32;;;16.30;99.90;;;;;;4996590;28;20244;-63
2023/09/27 08:48:51;;;;;;;16.20;10.45;;;16.60;99.90;;;;;;4994811;28;20208;-63
2023/09/27 08:51:18;;;;;;;16.38;10.68;;;16.80;99.90;;;;;;4991911;28;20193;-63
2023/09/27 08:53:43;;;;;;;17.45;11.20;;;17.00;99.90;;;;;;4976908;28;20260;-63
2023/09/27 08:56:16;;;;;;;14.77;10.48;;;17.50;99.90;;;;;;4976757;28;20260;-63
2023/09/27 08:58:45;;;;;;;11.35;10.00;;;17.60;99.90;;;;;;4976754;28;20215;-63
2023/09/27 09:01:11;;;;;;;10.60;9.02;;;17.90;99.90;;;;;;4976728;28;20173;-61
2023/09/27 09:03:37;;;;;;;13.95;10.20;;;18.20;99.90;;;;;;4976173;28;20192;-61
2023/09/27 09:06:12;;;;;;;12.43;9.23;;;18.40;99.90;;;;;;4976924;28;20225;-61
2023/09/27 09:08:43;;;;;;;11.30;8.80;;;18.40;99.90;;;;;;4975086;28;20284;-61
2023/09/27 09:11:10;;;;;;;13.40;9.00;;;18.40;99.90;;;;;;4976395;28;20260;-62
2023/09/27 09:14:03;;;;;;;12.95;8.75;;;18.40;99.90;;;;;;4976399;28;20177;-61
2023/09/27 09:16:39;;;;;;;9.80;7.30;;;18.50;99.90;;;;;;4976265;28;20207;-61
2023/09/27 09:19:23;;;;;;;13.15;7.90;;;18.60;99.90;;;;;;4976186;28;20193;-61
2023/09/27 09:22:05;;;;;;;8.32;6.80;;;18.60;99.90;;;;;;4976112;28;20672;-61
2023/09/27 09:24:35;;;;;;;9.65;7.60;;;18.70;99.90;;;;;;4961625;28;20192;-61
2023/09/27 09:27:12;;;;;;;9.00;7.25;;;18.60;99.90;;;;;;4995937;28;20636;-60
2023/09/27 09:29:46;;;;;;;9.90;7.47;;;18.70;99.90;;;;;;4995899;28;20286;-61
2023/09/27 09:32:20;;;;;;;12.55;8.88;;;18.60;99.90;;;;;;4995460;28;20172;-61
2023/09/27 09:34:49;;;;;;;11.93;8.18;;;18.50;99.90;;;;;;4995333;28;20555;-61
2023/09/27 09:37:23;;;;;;;12.85;9.18;;;18.40;99.90;;;;;;4995253;28;20180;-61
2023/09/27 09:39:50;;;;;;;12.77;8.98;;;18.60;99.90;;;;;;4995202;28;20571;-62
2023/09/27 09:42:33;;;;;;;11.40;7.43;;;18.80;99.90;;;;;;4995056;28;20204;-61
2023/09/27 09:45:06;;;;;;;9.80;7.80;;;18.90;99.90;;;;;;4995234;28;20648;-61
2023/09/27 09:47:35;;;;;;;11.02;6.78;;;19.10;99.90;;;;;;4995125;28;20685;-62
2023/09/27 09:50:06;;;;;;;12.63;7.25;;;19.30;99.90;;;;;;4994742;28;20275;-61
2023/09/27 09:52:35;;;;;;;10.15;6.55;;;19.40;99.90;;;;;;4995081;28;20184;-61
2023/09/27 09:55:03;;;;;;;10.10;6.20;;;19.50;99.90;;;;;;4977508;28;20197;-61
2023/09/27 09:57:35;;;;;;;7.18;6.03;;;19.60;99.90;;;;;;4995076;28;20165;-61
2023/09/27 10:00:11;;;;;;;7.10;5.53;;;19.60;99.90;;;;;;4994830;28;20222;-61
2023/09/27 10:02:47;;;;;;;7.05;4.97;;;19.80;99.90;;;;;;4994991;28;20149;-61
2023/09/27 10:05:14;;;;;;;9.70;5.13;;;19.90;99.90;;;;;;4994571;28;20157;-62
2023/09/27 10:07:43;;;;;;;8.10;5.78;;;20.00;99.90;;;;;;4994762;28;20207;-62
2023/09/27 10:10:09;;;;;;;6.88;5.10;;;20.10;99.90;;;;;;4994608;28;20311;-61
2023/09/27 10:12:36;;;;;;;12.52;6.10;;;20.20;99.90;;;;;;4994708;28;20219;-62
2023/09/27 10:15:05;;;;;;;6.47;4.88;;;20.30;99.90;;;;;;4994422;28;20196;-62
2023/09/27 10:17:33;;;;;;;6.85;4.75;;;20.40;99.90;;;;;;4994678;28;20169;-61
2023/09/27 10:20:12;;;;;;;7.90;5.32;;;20.40;99.90;;;;;;4994377;28;20223;-62
2023/09/27 10:22:41;;;;;;;8.73;5.50;;;20.50;99.90;;;;;;4994394;28;20176;-61
2023/09/27 10:25:31;;;;;;;9.63;5.22;;;20.60;99.90;;;;;;4994361;28;20574;-61
2023/09/27 10:28:00;;;;;;;6.40;5.07;;;20.70;99.90;;;;;;4994506;28;20176;-61
2023/09/27 10:30:26;;;;;;;10.90;5.20;;;20.80;99.90;;;;;;4994531;28;20193;-62
2023/09/27 10:33:13;;;;;;;7.85;4.72;;;20.80;99.90;;;;;;4994679;28;20180;-62
2023/09/27 10:35:39;;;;;;;8.77;4.78;;;20.90;99.90;;;;;;4994185;28;20201;-62
2023/09/27 10:38:09;;;;;;;8.55;4.80;;;21.00;99.90;;;;;;4994516;28;20168;-62
2023/09/27 10:40:47;;;;;;;7.47;4.85;;;21.10;99.90;;;;;;4994821;28;20188;-62
2023/09/27 10:43:34;;;;;;;7.22;4.32;;;21.30;99.90;;;;;;4994639;28;20179;-63
2023/09/27 10:46:00;;;;;;;10.77;4.22;;;21.50;99.90;;;;;;4994227;28;20696;-62
2023/09/27 10:48:26;;;;;;;6.65;4.07;;;21.60;99.90;;;;;;4993862;28;20188;-61
2023/09/27 10:50:53;;;;;;;5.30;4.00;;;21.70;99.90;;;;;;4994071;28;20173;-62
2023/09/27 10:53:19;;;;;;;4.93;3.28;;;22.00;99.90;;;;;;4992816;28;20180;-63
2023/09/27 10:55:45;;;;;;;5.95;3.45;;;22.20;99.90;;;;;;4993555;28;20555;-62
2023/09/27 10:58:17;;;;;;;4.05;3.20;;;22.40;99.90;;;;;;4994441;28;20207;-62
2023/09/27 11:00:55;;;;;;;4.43;3.40;;;22.60;99.90;;;;;;4992686;28;20228;-62
2023/09/27 11:03:23;;;;;;;4.25;2.88;;;22.80;99.90;;;;;;4994260;28;20164;-62
2023/09/27 11:05:50;;;;;;;4.50;3.15;;;23.00;99.90;;;;;;4993769;28;20172;-62
2023/09/27 11:08:25;;;;;;;3.65;3.00;;;23.20;99.90;;;;;;4993948;28;20172;-62
2023/09/27 11:10:56;;;;;;;5.85;2.67;;;23.30;99.90;;;;;;4992715;28;20184;-62
2023/09/27 11:13:22;;;;;;;5.25;2.95;;;23.40;99.90;;;;;;4994060;28;20617;-62
2023/09/27 11:15:48;;;;;;;4.63;3.40;;;23.60;99.90;;;;;;4994049;28;20205;-62
2023/09/27 11:18:14;;;;;;;4.25;3.30;;;23.70;99.90;;;;;;4994380;28;20253;-62
2023/09/27 11:20:39;;;;;;;5.97;3.05;;;23.90;99.90;;;;;;4993517;28;20619;-62
2023/09/27 11:23:05;;;;;;;5.88;3.40;;;24.10;99.90;;;;;;4993901;28;20172;-62
2023/09/27 11:25:33;;;;;;;3.97;3.00;;;24.20;99.90;;;;;;4993735;28;20238;-62
2023/09/27 11:27:59;;;;;;;3.90;2.80;;;24.40;99.90;;;;;;4994016;28;20180;-62
2023/09/27 11:30:43;;;;;;;5.07;2.83;;;24.30;99.90;;;;;;4993699;28;20599;-63
2023/09/27 11:33:08;;;;;;;6.25;3.00;;;24.30;99.90;;;;;;4993689;28;20192;-62
2023/09/27 11:35:34;;;;;;;4.18;2.75;;;24.50;99.90;;;;;;4993459;28;20259;-62
2023/09/27 11:38:10;;;;;;;5.28;3.10;;;24.60;99.90;;;;;;4993708;28;20189;-62
2023/09/27 11:40:38;;;;;;;5.57;3.20;;;24.50;99.90;;;;;;4993563;28;20567;-62
2023/09/27 11:43:04;;;;;;;5.93;3.20;;;24.40;99.90;;;;;;4993631;28;20235;-62
2023/09/27 11:45:43;;;;;;;4.03;2.78;;;24.30;99.90;;;;;;4993740;28;20199;-62
2023/09/27 11:48:09;;;;;;;4.10;3.00;;;24.30;99.90;;;;;;4993593;28;20538;-63
2023/09/27 11:50:36;;;;;;;3.63;3.05;;;24.40;99.90;;;;;;4993308;28;20291;-63
2023/09/27 11:53:02;;;;;;;4.53;2.72;;;24.70;99.90;;;;;;4955056;29;20589;-63
2023/09/27 11:55:28;;;;;;;4.22;3.40;;;24.90;99.90;;;;;;4954735;29;20197;-62
2023/09/27 11:57:59;;;;;;;3.35;2.90;;;25.10;99.90;;;;;;4954810;29;20220;-62
2023/09/27 12:00:25;;;;;;;4.40;2.80;;;25.00;99.90;;;;;;4954669;28;20280;-62
2023/09/27 12:02:52;;;;;;;8.73;3.90;;;25.10;99.90;;;;;;4954730;29;20639;-62
2023/09/27 12:05:18;;;;;;;4.25;3.20;;;25.00;99.90;;;;;;4954490;29;20196;-62
2023/09/27 12:07:44;;;;;;;9.65;3.38;;;24.80;99.90;;;;;;4956378;28;20174;-62
2023/09/27 12:10:10;;;;;;;4.18;3.20;;;24.80;99.90;;;;;;4958596;28;20201;-62
2023/09/27 12:12:39;;;;;;;5.45;3.22;;;24.80;99.90;;;;;;4958148;29;20185;-62
2023/09/27 12:15:06;;;;;;;5.15;3.15;;;25.10;99.90;;;;;;4958319;29;20333;-62
2023/09/27 12:17:32;;;;;;;3.47;2.67;;;25.30;99.90;;;;;;4958087;29;20174;-62
2023/09/27 12:19:57;;;;;;;8.90;3.42;;;25.60;99.90;;;;;;4957841;28;20625;-62
2023/09/27 12:22:29;;;;;;;5.28;3.30;;;25.50;99.90;;;;;;4983788;28;20184;-62
2023/09/27 12:24:54;;;;;;;4.88;3.13;;;25.10;99.90;;;;;;4996729;28;20564;-62
2023/09/27 12:27:20;;;;;;;4.82;2.80;;;25.00;99.90;;;;;;4996803;28;20176;-62
2023/09/27 12:29:46;;;;;;;7.60;3.20;;;25.10;99.90;;;;;;4996454;28;20203;-62
2023/09/27 12:32:12;;;;;;;6.93;3.35;;;24.90;99.90;;;;;;4996986;28;20169;-63
2023/09/27 12:34:38;;;;;;;4.72;3.47;;;24.70;99.90;;;;;;4996064;28;20200;-62
2023/09/27 12:37:03;;;;;;;6.30;3.40;;;24.40;99.90;;;;;;4996892;28;20169;-62
2023/09/27 12:39:29;;;;;;;5.45;3.05;;;24.30;99.90;;;;;;4996331;28;20198;-63
2023/09/27 12:41:59;;;;;;;3.90;2.88;;;24.30;99.90;;;;;;4996332;28;20182;-62
2023/09/27 12:44:26;;;;;;;7.68;3.40;;;24.40;99.90;;;;;;4996369;28;20167;-62
2023/09/27 12:46:51;;;;;;;6.13;2.88;;;24.70;99.90;;;;;;4996269;28;20173;-63